Rankin, Michigan
Current Conditions -  °F | °C
As of 3:53 AM on Sunday 26 Oct 2014 (Local Time) from KFNT Reporting Station
Clear Clear  
Wind Chill: 39°   Ceiling: Unl
Heat Index: 44°   Visibility: 10mi
Dew Point: 31°   Wind: 9mph
Humidity: 60%   Direction: 280°W
Pressure: 29.86"   Gusts: NA
Location:  42.9382°N, 83.8244°W
Report Text: KFNT 260753Z AUTO 28008KT 10SM CLR 07/M01 A2986 RMK AO2 SLP113 T00671006
Loading
Personal Weather Stations






























Interactive Weather Map
Tropical Storm Tracking
New forecast layout! Learn more

10-Day Weather Forecast

Advertisements
Track Severe Weather on mobile